24 Datensätze sind 1 Tag. Aufzeichnung ab 07. Oktober 2014.
Werte (Summe von Anzahl und Position darf nicht größer sein als mögliche Datensätze).
Anzahl:
Position: Summe:
\ 20626 Datensätze möglich.
  20 letzte Aufzeichnungen
gezeigte Daten 20 ab Position 1    Summe der Auswahl = 21
27.04.2017 / 18:29 Uhr bis 28.04.2017 / 14:30 Uhr
Regenmenge 0 Liter

Datum/Zeit Temp. Taupunkt Luftfeuchte Wind speed Wind böhe Wind Temp. Regen Summe Luftdruck
28.04.2017 | 15:30 Uhr 10.0C 2.1C 58% 5.1 kmh 0.6kmh 10.7C 0.0mm 993.0361mBar/hPa
28.04.2017 | 14:30 Uhr 10.3C 2.2C 57% 0.0 kmh 0.9kmh 10.8C 0.0mm 992.9111mBar/hPa
28.04.2017 | 13:30 Uhr 10.8C 1.9C 54% 0.0 kmh 0.8kmh 11.7C 0.0mm 992.8486mBar/hPa
28.04.2017 | 11:30 Uhr 10.1C 2.7C 60% 0.0 kmh 1.1kmh 13.7C 0.0mm 992.7236mBar/hPa
28.04.2017 | 10:30 Uhr 9.1C 2.6C 64% 5.1 kmh 1.1kmh 10.7C 0.0mm 992.6611mBar/hPa
28.04.2017 | 09:30 Uhr 8.3C 2.5C 67% 0.0 kmh 0.3kmh 10.0C 0.0mm 993.4736mBar/hPa
28.04.2017 | 08:30 Uhr 7.5C 2.8C 72% 0.0 kmh 0.2kmh 9.4C 0.0mm 993.1611mBar/hPa
28.04.2017 | 07:30 Uhr 6.2C 2.6C 78% 0.0 kmh 0.1kmh 7.6C 0.0mm 993.3486mBar/hPa
28.04.2017 | 06:30 Uhr 4.7C 1.5C 80% 0.0 kmh 0.0kmh 5.6C 0.0mm 993.4111mBar/hPa
28.04.2017 | 05:30 Uhr 3.2C 0.3C 81% 0.0 kmh 0.0kmh 2.6C 0.0mm 993.2861mBar/hPa
28.04.2017 | 04:30 Uhr 2.2C -1.1C 79% 0.0 kmh 0.0kmh -0.4C 0.0mm 992.9736mBar/hPa
28.04.2017 | 03:29 Uhr 2.8C -0.7C 78% 0.0 kmh 0.0kmh 0.4C 0.0mm 993.3486mBar/hPa
28.04.2017 | 02:29 Uhr 3.2C -0.1C 79% 0.0 kmh 0.0kmh 1.3C 0.0mm 993.0986mBar/hPa
28.04.2017 | 01:29 Uhr 3.5C 0.2C 79% 0.0 kmh 0.0kmh 1.5C 0.0mm 994.3486mBar/hPa
28.04.2017 | 00:29 Uhr 3.7C 0.0C 77% 0.0 kmh 0.0kmh 1.8C 0.0mm 994.2236mBar/hPa
27.04.2017 | 23:30 Uhr 3.9C 0.1C 76% 0.0 kmh 0.0kmh 1.5C 0.0mm 994.9111mBar/hPa
27.04.2017 | 22:29 Uhr 4.2C 0.2C 75% 0.0 kmh 0.0kmh 2.0C 0.0mm 995.0361mBar/hPa
27.04.2017 | 21:29 Uhr 4.4C 0.0C 73% 0.0 kmh 0.0kmh 2.1C 0.0mm 995.4736mBar/hPa
27.04.2017 | 20:29 Uhr 5.1C -0.1C 69% 0.0 kmh 0.0kmh 2.5C 0.0mm 995.7861mBar/hPa
27.04.2017 | 19:29 Uhr 6.2C 0.1C 65% 0.0 kmh 0.0kmh 3.4C 0.0mm 995.4736mBar/hPa